F/V Carmalia — FMFK — position and weather

sailwx.info

Track history (hours):
 
Tides and Currents Weather Stations Pressure Air Temp Water Temp Dewpoint Dewpoint Depression Visibility Wind Speed Wind Dir Waves Ship Positions

F/V Carmalia

Last reported at 2014-Aug-25 21:30 UTC. Time now 2014-Aug-29 16:24 UTC.
Position N 47°55' W 004°55'.

Length 17 m.

Type: Fishing. MMSI: 228222900.

Date/timePositionNaut miles runAvg speedWind from/ knotsBaromVisibWave heightAir tempDewpointWater temp
2014-Aug-25 21:30N 47°55' W 004°55'56 8.0
2014-Aug-25 14:33N 47°42' W 003°34'8 8.1
2014-Aug-25 13:33N 47°42' W 003°22'2 1.7
2014-Aug-25 12:34N 47°44' W 003°22'0 0.0
2014-Aug-25 11:34N 47°44' W 003°22'0 0.1
2014-Aug-25 10:34N 47°44' W 003°22'0 0.0
2014-Aug-25 09:34N 47°44' W 003°22'0 0.0
2014-Aug-25 08:34N 47°44' W 003°22'0 0.0
2014-Aug-25 07:34N 47°44' W 003°22'0 0.0
2014-Aug-25 06:33N 47°44' W 003°22'0 0.0
2014-Aug-25 05:34N 47°44' W 003°22'0 0.0
2014-Aug-25 04:33N 47°44' W 003°22'0 0.0
2014-Aug-25 03:34N 47°44' W 003°22'0 0.0
2014-Aug-25 02:34N 47°44' W 003°22'0 0.0
2014-Aug-25 01:34N 47°44' W 003°22'0 0.0
2014-Aug-25 00:34N 47°44' W 003°22'0 0.0
2014-Aug-24 23:34N 47°44' W 003°22'0 0.0
2014-Aug-24 22:34N 47°44' W 003°22'0 0.0
2014-Aug-24 21:34N 47°44' W 003°22'0 0.0
2014-Aug-24 20:34N 47°44' W 003°22'0 0.0
2014-Aug-24 19:34N 47°44' W 003°22'0 0.0
2014-Aug-24 18:34N 47°44' W 003°22'0 0.0
2014-Aug-24 17:34N 47°44' W 003°22'0 0.0
2014-Aug-24 16:33N 47°44' W 003°22'0 0.0
2014-Aug-24 15:34N 47°44' W 003°22'0 0.0
2014-Aug-24 14:34N 47°44' W 003°22'0 0.0
2014-Aug-24 13:34N 47°44' W 003°22'0 0.0
2014-Aug-24 12:33N 47°44' W 003°22'0 0.0
2014-Aug-24 11:34N 47°44' W 003°22'0 0.0
2014-Aug-24 10:34N 47°44' W 003°22'0 0.0
2014-Aug-24 09:33N 47°44' W 003°22'0 0.0
2014-Aug-24 08:34N 47°44' W 003°22'0 0.0
2014-Aug-24 07:34N 47°44' W 003°22'0 0.0
2014-Aug-24 06:34N 47°44' W 003°22'0 0.0
2014-Aug-24 05:34N 47°44' W 003°22'0 0.0
2014-Aug-24 04:34N 47°44' W 003°22'0 0.0
2014-Aug-24 03:33N 47°44' W 003°22'0 0.0
2014-Aug-24 02:34N 47°44' W 003°22'0 0.0
2014-Aug-24 01:33N 47°44' W 003°22'0 0.0
2014-Aug-24 00:34N 47°44' W 003°22'0 0.0
2014-Aug-23 23:33N 47°44' W 003°22'0 0.0
2014-Aug-23 22:34N 47°44' W 003°22'0 0.0
2014-Aug-23 21:34N 47°44' W 003°22'0 0.0
2014-Aug-23 20:33N 47°44' W 003°22'0 0.0
2014-Aug-23 19:34N 47°44' W 003°22'0 0.0
2014-Aug-23 03:33N 47°44' W 003°22'0 0.0
2014-Aug-23 02:34N 47°44' W 003°22'0 0.0
2014-Aug-23 01:34N 47°44' W 003°22'0 0.0
2014-Aug-23 00:34N 47°44' W 003°22'0 0.0
2014-Aug-22 23:34N 47°44' W 003°22'0 0.0
2014-Aug-22 22:34N 47°44' W 003°22'0 0.0
2014-Aug-22 21:34N 47°44' W 003°22'0 0.0
2014-Aug-22 20:33N 47°44' W 003°22'0 0.0
2014-Aug-22 19:34N 47°44' W 003°22'0 0.0
2014-Aug-22 18:34N 47°44' W 003°22'0 0.0
2014-Aug-22 17:34N 47°44' W 003°22'0 0.0
2014-Aug-22 16:34N 47°44' W 003°22'0 0.0
2014-Aug-22 15:34N 47°44' W 003°22'0 0.0
2014-Aug-22 14:33N 47°44' W 003°22'0 0.0
2014-Aug-22 13:33N 47°44' W 003°22'0 0.0
2014-Aug-22 12:34N 47°44' W 003°22'0 0.0
2014-Aug-22 11:34N 47°44' W 003°22'0 0.0
2014-Aug-22 10:34N 47°44' W 003°22'0 0.0
2014-Aug-22 09:33N 47°44' W 003°22'0 0.0
2014-Aug-21 18:33N 47°44' W 003°22'0 0.1
2014-Aug-21 17:33N 47°44' W 003°22'0 0.0
2014-Aug-21 16:33N 47°44' W 003°22'0 0.0
2014-Aug-21 15:33N 47°44' W 003°22'0 0.0
2014-Aug-21 14:33N 47°44' W 003°22'1 0.6
2014-Aug-21 13:33N 47°43' W 003°22'  
2014-Aug-16 05:06N 50°52' W 011°39'  
Track history (hours):
 
Tides and Currents Weather Stations Pressure Air Temp Water Temp Dewpoint Dewpoint Depression Visibility Wind Speed Wind Dir Waves Ship Positions

F/V Carmalia

Last reported at 2014-Aug-25 21:30 UTC. Time now 2014-Aug-29 16:24 UTC.
Position N 47°55' W 004°55'.

Length 17 m.

Type: Fishing. MMSI: 228222900.

Date/timePositionNaut miles runAvg speedWind from/ knotsBaromVisibWave heightAir tempDewpointWater temp
2014-Aug-25 21:30N 47°55' W 004°55'56 8.0
2014-Aug-25 14:33N 47°42' W 003°34'8 8.1
2014-Aug-25 13:33N 47°42' W 003°22'2 1.7
2014-Aug-25 12:34N 47°44' W 003°22'0 0.0
2014-Aug-25 11:34N 47°44' W 003°22'0 0.1
2014-Aug-25 10:34N 47°44' W 003°22'0 0.0
2014-Aug-25 09:34N 47°44' W 003°22'0 0.0
2014-Aug-25 08:34N 47°44' W 003°22'0 0.0
2014-Aug-25 07:34N 47°44' W 003°22'0 0.0
2014-Aug-25 06:33N 47°44' W 003°22'0 0.0
2014-Aug-25 05:34N 47°44' W 003°22'0 0.0
2014-Aug-25 04:33N 47°44' W 003°22'0 0.0
2014-Aug-25 03:34N 47°44' W 003°22'0 0.0
2014-Aug-25 02:34N 47°44' W 003°22'0 0.0
2014-Aug-25 01:34N 47°44' W 003°22'0 0.0
2014-Aug-25 00:34N 47°44' W 003°22'0 0.0
2014-Aug-24 23:34N 47°44' W 003°22'0 0.0
2014-Aug-24 22:34N 47°44' W 003°22'0 0.0
2014-Aug-24 21:34N 47°44' W 003°22'0 0.0
2014-Aug-24 20:34N 47°44' W 003°22'0 0.0
2014-Aug-24 19:34N 47°44' W 003°22'0 0.0
2014-Aug-24 18:34N 47°44' W 003°22'0 0.0
2014-Aug-24 17:34N 47°44' W 003°22'0 0.0
2014-Aug-24 16:33N 47°44' W 003°22'0 0.0
2014-Aug-24 15:34N 47°44' W 003°22'0 0.0
2014-Aug-24 14:34N 47°44' W 003°22'0 0.0
2014-Aug-24 13:34N 47°44' W 003°22'0 0.0
2014-Aug-24 12:33N 47°44' W 003°22'0 0.0
2014-Aug-24 11:34N 47°44' W 003°22'0 0.0
2014-Aug-24 10:34N 47°44' W 003°22'0 0.0
2014-Aug-24 09:33N 47°44' W 003°22'0 0.0
2014-Aug-24 08:34N 47°44' W 003°22'0 0.0
2014-Aug-24 07:34N 47°44' W 003°22'0 0.0
2014-Aug-24 06:34N 47°44' W 003°22'0 0.0
2014-Aug-24 05:34N 47°44' W 003°22'0 0.0
2014-Aug-24 04:34N 47°44' W 003°22'0 0.0
2014-Aug-24 03:33N 47°44' W 003°22'0 0.0
2014-Aug-24 02:34N 47°44' W 003°22'0 0.0
2014-Aug-24 01:33N 47°44' W 003°22'0 0.0
2014-Aug-24 00:34N 47°44' W 003°22'0 0.0
2014-Aug-23 23:33N 47°44' W 003°22'0 0.0
2014-Aug-23 22:34N 47°44' W 003°22'0 0.0
2014-Aug-23 21:34N 47°44' W 003°22'0 0.0
2014-Aug-23 20:33N 47°44' W 003°22'0 0.0
2014-Aug-23 19:34N 47°44' W 003°22'0 0.0
2014-Aug-23 03:33N 47°44' W 003°22'0 0.0
2014-Aug-23 02:34N 47°44' W 003°22'0 0.0
2014-Aug-23 01:34N 47°44' W 003°22'0 0.0
2014-Aug-23 00:34N 47°44' W 003°22'0 0.0
2014-Aug-22 23:34N 47°44' W 003°22'0 0.0
2014-Aug-22 22:34N 47°44' W 003°22'0 0.0
2014-Aug-22 21:34N 47°44' W 003°22'0 0.0
2014-Aug-22 20:33N 47°44' W 003°22'0 0.0
2014-Aug-22 19:34N 47°44' W 003°22'0 0.0
2014-Aug-22 18:34N 47°44' W 003°22'0 0.0
2014-Aug-22 17:34N 47°44' W 003°22'0 0.0
2014-Aug-22 16:34N 47°44' W 003°22'0 0.0
2014-Aug-22 15:34N 47°44' W 003°22'0 0.0
2014-Aug-22 14:33N 47°44' W 003°22'0 0.0
2014-Aug-22 13:33N 47°44' W 003°22'0 0.0
2014-Aug-22 12:34N 47°44' W 003°22'0 0.0
2014-Aug-22 11:34N 47°44' W 003°22'0 0.0
2014-Aug-22 10:34N 47°44' W 003°22'0 0.0
2014-Aug-22 09:33N 47°44' W 003°22'0 0.0
2014-Aug-21 18:33N 47°44' W 003°22'0 0.1
2014-Aug-21 17:33N 47°44' W 003°22'0 0.0
2014-Aug-21 16:33N 47°44' W 003°22'0 0.0
2014-Aug-21 15:33N 47°44' W 003°22'0 0.0
2014-Aug-21 14:33N 47°44' W 003°22'1 0.6
2014-Aug-21 13:33N 47°43' W 003°22'  
2014-Aug-16 05:06N 50°52' W 011°39'  

Dump ship's entire track history